Terminal Aerodrome Forecast
Issued by NWS Bismarck, ND

Home | Current Version | Previous Version | Graphics & Text | Print | Product List | Glossary On
Versions: 1 2 3 4 5 6 7 8 9 10 11 12 13 14 15 16 17 18 19 20 21 22 23 24 25
716
FTUS43 KBIS 282020 AAB
TAFBIS
TAF AMD
KBIS 282020Z 2820/2918 31018G28KT P6SM VCTS SCT070CB
      TEMPO 2820/2821 32024G36KT P6SM -TSRA BKN050CB
     FM282100 32021G32KT P6SM FEW070 SCT120
     FM290200 34015G23KT P6SM SCT110
     FM290400 33007KT P6SM SCT120
     FM291400 32014G23KT P6SM BKN030=

USA.gov is the U.S. government's official web portal to all federal, state and local government web resources and services.